createdAt,value
2022-12-03T00:00:11.914Z,16.37
2022-12-03T00:02:40.761Z,16.40
2022-12-03T00:05:09.048Z,16.70
2022-12-03T00:07:36.594Z,15.93
2022-12-03T00:10:05.423Z,15.27
2022-12-03T00:12:32.749Z,16.80
2022-12-03T00:15:00.139Z,15.43
2022-12-03T00:17:27.648Z,14.23
2022-12-03T00:19:55.163Z,14.37
2022-12-03T00:22:22.574Z,15.20
2022-12-03T00:24:50.211Z,16.80
2022-12-03T00:27:17.782Z,15.07
2022-12-03T00:29:45.189Z,17.33
2022-12-03T00:32:13.918Z,16.70
2022-12-03T00:34:41.155Z,16.07
2022-12-03T00:37:08.480Z,14.60
2022-12-03T00:39:35.723Z,15.47
2022-12-03T00:42:03.127Z,16.83
2022-12-03T00:44:30.767Z,18.40
2022-12-03T00:46:58.204Z,14.77
2022-12-03T00:49:25.530Z,17.00
2022-12-03T00:51:52.987Z,15.53
2022-12-03T00:54:20.342Z,14.50
2022-12-03T00:56:47.670Z,15.00
2022-12-03T00:59:15.042Z,16.03
2022-12-03T01:01:42.486Z,14.37
2022-12-03T01:04:10.057Z,14.90
2022-12-03T01:06:37.587Z,15.77
2022-12-03T01:09:04.997Z,15.70
2022-12-03T01:11:38.352Z,15.57
2022-12-03T01:14:10.319Z,13.37
2022-12-03T01:16:38.896Z,15.97
2022-12-03T01:19:06.978Z,15.80
2022-12-03T01:21:34.648Z,16.40
2022-12-03T01:24:01.887Z,15.53
2022-12-03T01:26:29.722Z,15.83
2022-12-03T01:28:56.955Z,17.10
2022-12-03T01:31:43.007Z,16.93
2022-12-03T01:34:10.321Z,15.53
2022-12-03T01:36:37.696Z,15.17
2022-12-03T01:39:05.456Z,14.73
2022-12-03T01:41:34.111Z,16.77
2022-12-03T01:44:02.411Z,15.27
2022-12-03T01:46:39.293Z,16.47
2022-12-03T01:49:09.314Z,15.37
2022-12-03T01:51:36.656Z,15.13
2022-12-03T01:54:03.981Z,15.73
2022-12-03T01:56:31.333Z,15.80
2022-12-03T01:58:58.945Z,16.20
2022-12-03T02:01:27.192Z,15.97
2022-12-03T02:03:54.514Z,15.03
2022-12-03T02:06:24.531Z,15.43
2022-12-03T02:08:58.648Z,14.40
2022-12-03T02:11:31.681Z,17.87
2022-12-03T02:14:05.422Z,15.63
2022-12-03T02:16:35.444Z,15.10
2022-12-03T02:19:04.453Z,16.50
2022-12-03T02:21:42.990Z,14.67
2022-12-03T02:24:31.496Z,12.53
2022-12-03T02:26:59.165Z,14.33
2022-12-03T02:29:26.415Z,16.47
2022-12-03T02:31:53.897Z,15.73
2022-12-03T02:34:54.117Z,13.70
2022-12-03T02:37:32.282Z,15.80
2022-12-03T02:40:04.259Z,14.83
2022-12-03T02:42:37.943Z,14.60
2022-12-03T02:45:16.562Z,15.03
2022-12-03T02:47:52.343Z,15.00
2022-12-03T02:50:23.526Z,15.47
2022-12-03T02:52:54.086Z,16.93
2022-12-03T02:55:22.358Z,14.63
2022-12-03T02:57:51.239Z,14.33
2022-12-03T03:00:19.391Z,15.23
2022-12-03T03:02:47.967Z,15.90
2022-12-03T03:05:17.311Z,16.37
2022-12-03T03:07:44.955Z,14.80
2022-12-03T03:10:15.415Z,14.67
2022-12-03T03:12:43.286Z,16.47
2022-12-03T03:15:26.132Z,15.53
2022-12-03T03:17:53.680Z,14.40
2022-12-03T03:20:21.202Z,14.47
2022-12-03T03:22:48.967Z,14.77
2022-12-03T03:25:18.767Z,15.27
2022-12-03T03:27:46.094Z,14.97
2022-12-03T03:30:14.271Z,15.83
2022-12-03T03:32:42.892Z,14.30
2022-12-03T03:35:11.658Z,15.80
2022-12-03T03:37:39.481Z,14.73
2022-12-03T03:40:07.704Z,14.93
2022-12-03T03:42:35.419Z,13.37
2022-12-03T03:45:02.811Z,15.70
2022-12-03T03:47:30.063Z,14.47
2022-12-03T03:49:57.378Z,13.60
2022-12-03T03:52:24.982Z,13.50
2022-12-03T03:54:52.560Z,14.63
2022-12-03T03:57:20.414Z,13.87
2022-12-03T03:59:47.614Z,14.50
2022-12-03T04:02:20.873Z,14.63
2022-12-03T04:04:49.112Z,14.60
2022-12-03T04:07:16.794Z,13.00
2022-12-03T04:09:44.463Z,14.27
2022-12-03T04:12:31.461Z,14.37
2022-12-03T04:14:59.295Z,13.70
2022-12-03T04:17:26.500Z,16.63
2022-12-03T04:19:53.777Z,14.27
2022-12-03T04:22:39.525Z,14.77
2022-12-03T04:25:28.045Z,14.10
2022-12-03T04:28:13.968Z,14.93
2022-12-03T04:30:41.337Z,13.03
2022-12-03T04:33:27.618Z,14.30
2022-12-03T04:35:55.170Z,14.60
2022-12-03T04:38:22.466Z,13.53
2022-12-03T04:41:01.945Z,15.80
2022-12-03T04:43:34.707Z,14.80
2022-12-03T04:46:02.628Z,13.87
2022-12-03T04:48:30.295Z,13.73
2022-12-03T04:50:57.763Z,13.70
2022-12-03T04:53:25.037Z,13.87
2022-12-03T04:55:52.215Z,15.27
2022-12-03T04:58:19.532Z,13.70
2022-12-03T05:00:47.123Z,12.97
2022-12-03T05:03:14.521Z,14.13
2022-12-03T05:05:41.757Z,17.07
2022-12-03T05:08:09.016Z,16.17
2022-12-03T05:10:36.471Z,14.47
2022-12-03T05:13:03.841Z,14.43
2022-12-03T05:15:31.177Z,15.33
2022-12-03T05:17:58.503Z,16.17
2022-12-03T05:20:41.259Z,14.73
2022-12-03T05:23:10.506Z,12.77
2022-12-03T05:25:38.026Z,14.10
2022-12-03T05:28:06.024Z,16.50
2022-12-03T05:30:33.793Z,14.47
2022-12-03T05:33:01.329Z,12.80
2022-12-03T05:35:28.659Z,15.00
2022-12-03T05:37:56.028Z,13.27
2022-12-03T05:40:23.521Z,13.60
2022-12-03T05:42:53.686Z,14.27
2022-12-03T05:45:41.678Z,15.73
2022-12-03T05:48:12.480Z,15.50
2022-12-03T05:50:43.913Z,13.83
2022-12-03T05:53:15.688Z,14.97
2022-12-03T05:55:43.179Z,15.77
2022-12-03T05:58:11.677Z,13.00
2022-12-03T06:00:42.914Z,15.07
2022-12-03T06:03:10.940Z,14.87
2022-12-03T06:05:38.684Z,13.43
2022-12-03T06:08:06.174Z,13.20
2022-12-03T06:10:33.697Z,13.80
2022-12-03T06:13:02.107Z,15.50
2022-12-03T06:15:29.499Z,14.10
2022-12-03T06:17:56.961Z,13.87
2022-12-03T06:20:24.420Z,13.17
2022-12-03T06:22:51.887Z,13.73
2022-12-03T06:25:19.253Z,15.83
2022-12-03T06:27:47.095Z,14.13
2022-12-03T06:30:14.787Z,13.67
2022-12-03T06:32:42.131Z,14.97
2022-12-03T06:35:09.791Z,15.40
2022-12-03T06:37:37.203Z,15.13
2022-12-03T06:40:04.962Z,15.37
2022-12-03T06:42:32.374Z,14.83
2022-12-03T06:44:59.598Z,14.80
2022-12-03T06:47:27.158Z,15.43
2022-12-03T06:49:54.660Z,15.07
2022-12-03T06:52:22.031Z,13.67
2022-12-03T06:54:49.294Z,14.20
2022-12-03T06:57:16.638Z,15.03
2022-12-03T06:59:43.921Z,15.60
2022-12-03T07:02:12.580Z,15.23
2022-12-03T07:04:45.927Z,14.77
2022-12-03T07:07:14.243Z,13.00
2022-12-03T07:09:41.713Z,14.30
2022-12-03T07:12:09.166Z,14.20
2022-12-03T07:14:36.645Z,15.90
2022-12-03T07:17:04.005Z,15.53
2022-12-03T07:19:32.956Z,15.10
2022-12-03T07:22:00.826Z,14.50
2022-12-03T07:24:28.191Z,12.67
2022-12-03T07:26:55.928Z,13.90
2022-12-03T07:29:23.743Z,14.20
2022-12-03T07:31:51.206Z,15.17
2022-12-03T07:34:18.718Z,14.63
2022-12-03T07:36:46.171Z,14.97
2022-12-03T07:39:13.863Z,14.70
2022-12-03T07:41:41.186Z,13.97
2022-12-03T07:44:14.060Z,12.83
2022-12-03T07:46:42.644Z,14.70
2022-12-03T07:49:11.990Z,13.10
2022-12-03T07:51:39.490Z,13.43
2022-12-03T07:54:07.540Z,12.93
2022-12-03T07:56:34.948Z,13.63
2022-12-03T07:59:02.352Z,14.73
2022-12-03T08:01:29.825Z,12.17
2022-12-03T08:03:57.336Z,14.70
2022-12-03T08:06:24.662Z,13.37
2022-12-03T08:08:52.105Z,13.23
2022-12-03T08:11:19.932Z,14.37
2022-12-03T08:13:47.386Z,14.20
2022-12-03T08:16:18.062Z,13.13
2022-12-03T08:18:46.903Z,13.77
2022-12-03T08:21:17.672Z,14.63
2022-12-03T08:23:45.378Z,14.10
2022-12-03T08:26:25.099Z,12.67
2022-12-03T08:28:53.446Z,13.10
2022-12-03T08:31:32.441Z,12.27
2022-12-03T08:34:28.229Z,13.73
2022-12-03T08:37:05.730Z,10.70
2022-12-03T08:39:41.517Z,12.87
2022-12-03T08:42:41.746Z,12.10
2022-12-03T08:45:28.437Z,12.37
2022-12-03T08:48:00.160Z,12.60
2022-12-03T08:50:30.508Z,11.40
2022-12-03T08:53:11.519Z,10.33
2022-12-03T08:55:44.694Z,13.77
2022-12-03T08:58:43.239Z,12.83
2022-12-03T09:01:11.753Z,10.67
2022-12-03T09:04:01.727Z,11.17
2022-12-03T09:06:29.212Z,11.37
2022-12-03T09:08:56.621Z,10.20
2022-12-03T09:11:23.995Z,10.80
2022-12-03T09:13:51.650Z,12.00
2022-12-03T09:16:19.879Z,11.40
2022-12-03T09:18:47.399Z,9.30
2022-12-03T09:21:14.797Z,10.47
2022-12-03T09:23:42.454Z,10.00
2022-12-03T09:26:09.852Z,9.87
2022-12-03T09:28:37.247Z,10.73
2022-12-03T09:31:04.940Z,7.13
2022-12-03T09:33:32.469Z,8.20
2022-12-03T09:35:59.972Z,7.67
2022-12-03T09:38:27.359Z,6.73
2022-12-03T09:40:54.770Z,7.13
2022-12-03T09:43:22.358Z,6.10
2022-12-03T09:45:50.009Z,7.53
2022-12-03T09:48:20.602Z,5.63
2022-12-03T09:50:48.862Z,5.53
2022-12-03T09:53:20.803Z,5.70
2022-12-03T09:55:50.370Z,6.87
2022-12-03T09:58:19.225Z,6.43
2022-12-03T10:00:51.465Z,6.10
2022-12-03T10:03:29.738Z,5.93
2022-12-03T10:05:57.962Z,5.63
2022-12-03T10:08:32.433Z,6.80
2022-12-03T10:11:00.370Z,5.73
2022-12-03T10:13:32.360Z,6.43
2022-12-03T10:16:01.043Z,6.17
2022-12-03T10:18:32.076Z,7.30
2022-12-03T10:21:01.500Z,6.87
2022-12-03T10:23:30.842Z,6.87
2022-12-03T10:26:00.731Z,6.30
2022-12-03T10:28:32.604Z,5.53
2022-12-03T10:31:01.372Z,6.30
2022-12-03T10:33:31.813Z,6.33
2022-12-03T10:36:21.378Z,6.10
2022-12-03T10:39:16.028Z,6.33
2022-12-03T10:41:44.701Z,6.73
2022-12-03T10:44:23.585Z,6.10
2022-12-03T10:47:10.030Z,5.73
2022-12-03T10:49:38.340Z,5.30
2022-12-03T10:52:06.854Z,6.87
2022-12-03T10:54:35.427Z,8.23
2022-12-03T10:57:02.979Z,8.07
2022-12-03T10:59:33.038Z,7.30
2022-12-03T11:02:02.904Z,7.57
2022-12-03T11:04:32.190Z,7.13
2022-12-03T11:07:01.755Z,6.67
2022-12-03T11:09:33.644Z,6.57
2022-12-03T11:12:07.846Z,7.00
2022-12-03T11:14:54.316Z,7.90
2022-12-03T11:17:48.191Z,6.67
2022-12-03T11:20:25.586Z,7.37
2022-12-03T11:22:57.893Z,7.37
2022-12-03T11:25:25.802Z,6.97
2022-12-03T11:28:12.792Z,7.23
2022-12-03T11:30:49.836Z,6.97
2022-12-03T11:33:24.651Z,6.87
2022-12-03T11:36:03.972Z,7.73
2022-12-03T11:38:37.442Z,6.27
2022-12-03T11:41:19.732Z,6.37
2022-12-03T11:43:53.232Z,6.87
2022-12-03T11:46:30.484Z,6.13
2022-12-03T11:48:59.828Z,5.80
2022-12-03T11:51:30.119Z,6.37
2022-12-03T11:53:59.707Z,7.40
2022-12-03T11:56:29.871Z,6.63
2022-12-03T11:58:59.839Z,6.40
2022-12-03T12:01:39.311Z,6.33
2022-12-03T12:04:25.661Z,6.40
2022-12-03T12:06:53.571Z,6.07
2022-12-03T12:09:50.690Z,6.60
2022-12-03T12:12:36.911Z,6.17
2022-12-03T12:15:38.296Z,5.50
2022-12-03T12:18:43.442Z,6.10
2022-12-03T12:21:38.759Z,6.87
2022-12-03T12:24:30.706Z,5.77
2022-12-03T12:27:05.267Z,7.80
2022-12-03T12:29:32.971Z,6.53
2022-12-03T12:32:10.635Z,6.77
2022-12-03T12:34:49.047Z,7.17
2022-12-03T12:37:27.436Z,6.17
2022-12-03T12:39:57.030Z,6.67
2022-12-03T12:42:37.951Z,5.33
2022-12-03T12:45:08.271Z,6.13
2022-12-03T12:47:36.563Z,5.93
2022-12-03T12:50:11.531Z,6.07
2022-12-03T12:52:51.395Z,7.03
2022-12-03T12:55:19.903Z,6.90
2022-12-03T12:57:47.337Z,7.03
2022-12-03T13:00:24.981Z,6.93
2022-12-03T13:02:59.780Z,6.40
2022-12-03T13:05:38.427Z,6.10
2022-12-03T13:08:24.177Z,6.10
2022-12-03T13:11:02.746Z,5.77
2022-12-03T13:13:31.655Z,6.73
2022-12-03T13:16:06.902Z,4.90
2022-12-03T13:18:37.666Z,5.70
2022-12-03T13:21:22.064Z,5.83
2022-12-03T13:23:53.497Z,5.30
2022-12-03T13:29:14.973Z,6.27
2022-12-03T13:31:50.548Z,6.70
2022-12-03T13:34:27.245Z,6.57
2022-12-03T13:36:58.454Z,5.47
2022-12-03T13:39:32.390Z,5.93
2022-12-03T13:42:37.769Z,5.57
2022-12-03T13:45:38.417Z,4.77
2022-12-03T13:48:31.622Z,5.30
2022-12-03T13:51:12.828Z,6.07
2022-12-03T13:53:40.713Z,5.60
2022-12-03T13:56:31.505Z,5.67
2022-12-03T13:59:00.427Z,5.43
2022-12-03T14:01:28.791Z,6.07
2022-12-03T14:03:56.602Z,6.50
2022-12-03T14:06:23.899Z,5.70
2022-12-03T14:08:51.534Z,6.00
2022-12-03T14:11:37.463Z,6.50
2022-12-03T14:14:04.749Z,5.73
2022-12-03T14:16:32.204Z,5.83
2022-12-03T14:18:59.532Z,6.33
2022-12-03T14:21:26.934Z,6.73
2022-12-03T14:23:54.257Z,5.70
2022-12-03T14:26:21.673Z,6.07
2022-12-03T14:28:48.919Z,6.77
2022-12-03T14:31:16.343Z,6.33
2022-12-03T14:33:43.764Z,6.93
2022-12-03T14:36:11.220Z,6.20
2022-12-03T14:38:38.412Z,6.10
2022-12-03T14:41:25.930Z,5.90
2022-12-03T14:43:53.546Z,5.67
2022-12-03T14:46:21.073Z,5.93
2022-12-03T14:48:48.361Z,6.27
2022-12-03T14:51:15.718Z,5.50
2022-12-03T14:53:42.992Z,6.87
2022-12-03T14:56:10.400Z,5.00
2022-12-03T14:58:37.719Z,5.57
2022-12-03T15:01:05.344Z,5.43
2022-12-03T15:03:32.604Z,5.70
2022-12-03T15:06:00.720Z,6.80
2022-12-03T15:08:28.607Z,5.70
2022-12-03T15:10:56.062Z,5.87
2022-12-03T15:13:23.538Z,5.57
2022-12-03T15:15:51.219Z,6.00
2022-12-03T15:18:18.597Z,5.77
2022-12-03T15:20:45.863Z,6.50
2022-12-03T15:23:14.740Z,6.00
2022-12-03T15:25:42.200Z,5.77
2022-12-03T15:28:09.758Z,5.83
2022-12-03T15:30:36.975Z,5.93
2022-12-03T15:33:04.778Z,5.83
2022-12-03T15:35:32.711Z,6.50
2022-12-03T15:38:00.420Z,6.20
2022-12-03T15:40:27.966Z,7.20
2022-12-03T15:42:55.331Z,6.67
2022-12-03T15:45:23.001Z,4.60
2022-12-03T15:47:50.469Z,5.93
2022-12-03T15:50:18.095Z,6.03
2022-12-03T15:52:45.421Z,6.07
2022-12-03T15:55:13.096Z,5.30
2022-12-03T15:57:40.471Z,6.57
2022-12-03T16:00:09.827Z,6.00
2022-12-03T16:02:41.006Z,7.07
2022-12-03T16:05:12.726Z,8.67
2022-12-03T16:07:40.589Z,7.77
2022-12-03T16:10:10.417Z,7.00
2022-12-03T16:12:37.831Z,6.40
2022-12-03T16:15:05.632Z,7.40
2022-12-03T16:17:32.941Z,6.57
2022-12-03T16:20:00.469Z,6.40
2022-12-03T16:22:27.823Z,6.77
2022-12-03T16:24:55.084Z,6.80
2022-12-03T16:27:25.673Z,6.47
2022-12-03T16:29:53.907Z,6.43
2022-12-03T16:32:21.952Z,6.67
2022-12-03T16:34:49.418Z,6.43
2022-12-03T16:37:16.771Z,5.20
2022-12-03T16:39:48.326Z,6.90
2022-12-03T16:42:17.449Z,6.23
2022-12-03T16:45:03.267Z,7.30
2022-12-03T16:47:34.186Z,7.70
2022-12-03T16:50:02.946Z,7.03
2022-12-03T16:52:30.371Z,7.90
2022-12-03T16:54:57.627Z,7.20
2022-12-03T16:57:29.028Z,6.97
2022-12-03T17:00:00.762Z,7.67
2022-12-03T17:02:28.339Z,7.83
2022-12-03T17:04:55.622Z,8.17
2022-12-03T17:07:23.067Z,7.70
2022-12-03T17:09:50.367Z,7.43
2022-12-03T17:12:17.741Z,7.23
2022-12-03T17:14:45.006Z,8.50
2022-12-03T17:17:12.435Z,7.30
2022-12-03T17:19:39.613Z,8.17
2022-12-03T17:22:07.017Z,8.13
2022-12-03T17:24:34.693Z,9.00
2022-12-03T17:27:02.348Z,8.70
2022-12-03T17:29:29.667Z,8.23
2022-12-03T17:31:57.038Z,8.27
2022-12-03T17:34:24.297Z,8.80
2022-12-03T17:36:51.749Z,8.50
2022-12-03T17:39:19.121Z,10.13
2022-12-03T17:41:46.632Z,9.13
2022-12-03T17:44:19.402Z,8.50
2022-12-03T17:46:48.517Z,9.83
2022-12-03T17:49:15.872Z,9.27
2022-12-03T17:51:43.327Z,8.47
2022-12-03T17:54:10.681Z,10.67
2022-12-03T17:56:39.285Z,8.87
2022-12-03T17:59:06.614Z,10.20
2022-12-03T18:01:34.293Z,8.73
2022-12-03T18:04:01.728Z,10.83
2022-12-03T18:06:29.271Z,9.97
2022-12-03T18:08:56.634Z,9.70
2022-12-03T18:11:24.992Z,8.37
2022-12-03T18:13:52.327Z,10.50
2022-12-03T18:16:19.819Z,9.60
2022-12-03T18:18:48.614Z,9.00
2022-12-03T18:21:17.682Z,8.97
2022-12-03T18:23:45.229Z,7.87
2022-12-03T18:26:12.880Z,8.70
2022-12-03T18:28:40.178Z,8.30
2022-12-03T18:31:18.890Z,8.07
2022-12-03T18:33:46.495Z,8.43
2022-12-03T18:36:25.782Z,7.87
2022-12-03T18:38:55.156Z,10.80
2022-12-03T18:41:24.298Z,8.47
2022-12-03T18:43:51.911Z,9.03
2022-12-03T18:49:09.319Z,10.07
2022-12-03T18:51:37.299Z,8.70
2022-12-03T18:54:10.627Z,7.87
2022-12-03T18:56:39.581Z,8.73
2022-12-03T18:59:07.510Z,7.33
2022-12-03T19:01:35.732Z,8.27
2022-12-03T19:04:03.580Z,9.57
2022-12-03T19:06:30.959Z,9.53
2022-12-03T19:08:58.244Z,8.87
2022-12-03T19:11:25.840Z,9.93
2022-12-03T19:13:53.117Z,8.03
2022-12-03T19:16:20.654Z,8.43
2022-12-03T19:18:48.299Z,7.80
2022-12-03T19:21:16.730Z,7.87
2022-12-03T19:24:04.128Z,7.90
2022-12-03T19:26:31.859Z,7.80
2022-12-03T19:28:59.198Z,8.37
2022-12-03T19:31:26.642Z,8.60
2022-12-03T19:33:54.261Z,8.67
2022-12-03T19:36:25.235Z,9.40
2022-12-03T19:38:57.356Z,7.53
2022-12-03T19:41:27.245Z,8.63
2022-12-03T19:43:56.035Z,9.07
2022-12-03T19:46:25.137Z,10.00
2022-12-03T19:48:53.908Z,9.20
2022-12-03T19:51:34.194Z,9.13
2022-12-03T19:54:07.506Z,8.43
2022-12-03T19:56:35.304Z,7.37
2022-12-03T19:59:02.935Z,8.47
2022-12-03T20:01:32.555Z,7.50
2022-12-03T20:04:01.929Z,7.73
2022-12-03T20:06:32.688Z,8.70
2022-12-03T20:09:04.890Z,8.07
2022-12-03T20:11:34.265Z,7.90
2022-12-03T20:14:07.712Z,8.83
2022-12-03T20:16:35.798Z,7.57
2022-12-03T20:19:06.807Z,6.77
2022-12-03T20:21:36.483Z,7.33
2022-12-03T20:24:05.004Z,7.03
2022-12-03T20:26:32.582Z,7.03
2022-12-03T20:29:00.491Z,7.53
2022-12-03T20:31:31.202Z,7.57
2022-12-03T20:34:00.966Z,7.43
2022-12-03T20:36:30.120Z,6.90
2022-12-03T20:39:00.535Z,7.43
2022-12-03T20:41:28.023Z,6.37
2022-12-03T20:43:55.868Z,7.93
2022-12-03T20:46:29.787Z,8.13
2022-12-03T20:48:57.923Z,8.37
2022-12-03T20:51:29.910Z,7.60
2022-12-03T20:53:59.332Z,7.97
2022-12-03T20:56:32.998Z,8.57
2022-12-03T20:59:07.035Z,8.17
2022-12-03T21:01:36.050Z,7.87
2022-12-03T21:04:04.985Z,8.20
2022-12-03T21:06:35.670Z,7.57
2022-12-03T21:09:05.698Z,8.67
2022-12-03T21:11:35.732Z,9.23
2022-12-03T21:14:04.113Z,8.63
2022-12-03T21:17:05.947Z,8.60
2022-12-03T21:19:22.913Z,7.73
2022-12-03T21:21:50.271Z,8.80
2022-12-03T21:24:17.655Z,8.63
2022-12-03T21:26:45.021Z,9.23
2022-12-03T21:29:12.414Z,7.50
2022-12-03T21:31:40.052Z,8.03
2022-12-03T21:34:08.679Z,8.47
2022-12-03T21:36:36.283Z,7.30
2022-12-03T21:39:05.294Z,8.80
2022-12-03T21:41:34.891Z,7.83
2022-12-03T21:44:02.666Z,10.03
2022-12-03T21:47:11.574Z,9.03
2022-12-03T21:49:19.266Z,7.43
2022-12-03T21:51:46.904Z,8.50
2022-12-03T21:54:14.802Z,8.53
2022-12-03T21:56:42.323Z,9.43
2022-12-03T21:59:09.618Z,8.80
2022-12-03T22:01:38.415Z,9.27
2022-12-03T22:04:07.874Z,8.23
2022-12-03T22:06:35.215Z,8.23
2022-12-03T22:09:02.664Z,8.37
2022-12-03T22:11:30.003Z,9.37
2022-12-03T22:13:57.642Z,7.50
2022-12-03T22:16:25.205Z,7.83
2022-12-03T22:18:53.885Z,8.37
2022-12-03T22:21:21.764Z,9.23
2022-12-03T22:23:49.105Z,8.57
2022-12-03T22:26:18.783Z,9.80
2022-12-03T22:28:48.081Z,8.63
2022-12-03T22:31:17.083Z,9.33
2022-12-03T22:33:48.056Z,8.43
2022-12-03T22:36:20.968Z,8.13
2022-12-03T22:38:52.129Z,8.43
2022-12-03T22:41:19.958Z,9.23
2022-12-03T22:43:48.095Z,8.97
2022-12-03T22:46:16.099Z,9.20
2022-12-03T22:48:45.273Z,9.13
2022-12-03T22:51:15.639Z,8.60
2022-12-03T22:53:43.024Z,9.07
2022-12-03T22:56:11.134Z,8.50
2022-12-03T22:58:39.746Z,10.93
2022-12-03T23:01:07.751Z,10.33
2022-12-03T23:03:36.384Z,9.70
2022-12-03T23:06:12.037Z,8.53
2022-12-03T23:08:39.907Z,9.67
2022-12-03T23:11:08.070Z,9.73
2022-12-03T23:13:35.426Z,9.20
2022-12-03T23:16:03.314Z,10.30
2022-12-03T23:18:31.152Z,10.23
2022-12-03T23:20:58.848Z,9.50
2022-12-03T23:23:27.628Z,9.33
2022-12-03T23:26:01.049Z,10.50
2022-12-03T23:28:29.580Z,10.33
2022-12-03T23:30:57.360Z,9.80
2022-12-03T23:33:25.091Z,10.10
2022-12-03T23:35:52.414Z,9.27
2022-12-03T23:38:20.151Z,9.17
2022-12-03T23:40:48.391Z,8.80
2022-12-03T23:43:16.415Z,9.07
2022-12-03T23:45:43.800Z,8.97
2022-12-03T23:48:11.267Z,8.30
2022-12-03T23:50:40.047Z,8.80
2022-12-03T23:53:07.464Z,9.20
2022-12-03T23:55:38.211Z,8.60
2022-12-03T23:58:05.624Z,7.77
